createdAt,value
2022-08-28T00:01:32.223Z,12.93
2022-08-28T00:03:36.898Z,10.53
2022-08-28T00:05:43.099Z,11.67
2022-08-28T00:07:48.219Z,11.63
2022-08-28T00:09:51.954Z,11.43
2022-08-28T00:11:56.804Z,12.00
2022-08-28T00:14:00.959Z,10.83
2022-08-28T00:16:05.044Z,10.30
2022-08-28T00:18:09.072Z,11.00
2022-08-28T00:20:19.230Z,12.40
2022-08-28T00:22:22.442Z,11.40
2022-08-28T00:24:27.451Z,11.13
2022-08-28T00:26:48.158Z,10.60
2022-08-28T00:28:51.554Z,10.23
2022-08-28T00:30:57.297Z,12.30
2022-08-28T00:33:03.749Z,10.77
2022-08-28T00:35:08.792Z,11.53
2022-08-28T00:37:12.280Z,11.00
2022-08-28T00:39:16.474Z,10.90
2022-08-28T00:41:24.915Z,11.87
2022-08-28T00:43:37.411Z,10.67
2022-08-28T00:45:42.589Z,10.60
2022-08-28T00:47:46.381Z,10.70
2022-08-28T00:49:52.750Z,10.23
2022-08-28T00:52:09.073Z,9.93
2022-08-28T00:54:15.292Z,11.17
2022-08-28T00:56:20.899Z,10.97
2022-08-28T00:58:25.748Z,10.97
2022-08-28T01:00:32.750Z,10.33
2022-08-28T01:02:36.399Z,10.20
2022-08-28T01:04:42.264Z,9.87
2022-08-28T01:06:48.680Z,11.70
2022-08-28T01:08:53.872Z,10.80
2022-08-28T01:10:59.383Z,11.00
2022-08-28T01:13:04.168Z,9.90
2022-08-28T01:15:14.066Z,10.07
2022-08-28T01:17:20.762Z,9.77
2022-08-28T01:19:32.402Z,10.43
2022-08-28T01:21:44.199Z,11.77
2022-08-28T01:23:54.885Z,11.40
2022-08-28T01:26:00.341Z,12.47
2022-08-28T01:28:07.176Z,10.40
2022-08-28T01:30:12.754Z,11.57
2022-08-28T01:32:27.386Z,10.23
2022-08-28T01:34:31.175Z,11.30
2022-08-28T01:36:35.288Z,11.13
2022-08-28T01:38:39.523Z,9.67
2022-08-28T01:40:48.115Z,10.27
2022-08-28T01:42:51.936Z,11.27
2022-08-28T01:44:55.431Z,10.47
2022-08-28T01:47:00.256Z,9.50
2022-08-28T01:49:04.989Z,11.90
2022-08-28T01:51:11.477Z,10.57
2022-08-28T01:53:18.625Z,11.50
2022-08-28T01:55:22.656Z,10.57
2022-08-28T01:57:28.179Z,10.70
2022-08-28T01:59:31.874Z,11.80
2022-08-28T02:01:35.619Z,10.93
2022-08-28T02:03:39.086Z,12.00
2022-08-28T02:05:43.180Z,9.67
2022-08-28T02:07:47.079Z,10.53
2022-08-28T02:09:50.467Z,10.33
2022-08-28T02:11:54.086Z,9.23
2022-08-28T02:13:59.526Z,11.03
2022-08-28T02:16:04.185Z,12.00
2022-08-28T02:18:08.439Z,11.03
2022-08-28T02:20:12.556Z,10.03
2022-08-28T02:22:16.379Z,11.67
2022-08-28T02:24:20.362Z,12.13
2022-08-28T02:26:24.791Z,10.63
2022-08-28T02:28:29.490Z,10.40
2022-08-28T02:30:34.591Z,10.20
2022-08-28T02:32:38.440Z,10.77
2022-08-28T02:34:43.674Z,10.57
2022-08-28T02:36:48.098Z,10.30
2022-08-28T02:38:57.444Z,10.87
2022-08-28T02:41:01.108Z,10.37
2022-08-28T02:43:08.308Z,10.40
2022-08-28T02:45:13.111Z,9.33
2022-08-28T02:47:19.353Z,11.40
2022-08-28T02:49:23.079Z,10.50
2022-08-28T02:51:27.473Z,11.00
2022-08-28T02:53:31.301Z,10.97
2022-08-28T02:55:34.837Z,10.07
2022-08-28T02:57:38.404Z,10.10
2022-08-28T02:59:41.859Z,10.57
2022-08-28T03:01:45.582Z,10.87
2022-08-28T03:03:50.283Z,8.77
2022-08-28T03:05:53.800Z,9.60
2022-08-28T03:07:57.296Z,8.43
2022-08-28T03:10:00.594Z,9.80
2022-08-28T03:12:04.181Z,9.37
2022-08-28T03:14:07.370Z,9.03
2022-08-28T03:16:10.843Z,8.73
2022-08-28T03:18:15.802Z,9.27
2022-08-28T03:20:20.848Z,9.50
2022-08-28T03:22:45.138Z,8.97
2022-08-28T03:24:47.804Z,9.20
2022-08-28T03:26:51.086Z,10.37
2022-08-28T03:28:59.736Z,9.00
2022-08-28T03:31:03.857Z,8.97
2022-08-28T03:33:07.601Z,10.03
2022-08-28T03:35:13.056Z,12.70
2022-08-28T03:37:17.968Z,12.00
2022-08-28T03:39:21.282Z,13.43
2022-08-28T03:41:27.032Z,12.00
2022-08-28T03:43:31.541Z,10.30
2022-08-28T03:45:34.879Z,13.30
2022-08-28T03:47:39.059Z,12.80
2022-08-28T03:49:43.137Z,13.50
2022-08-28T03:51:46.563Z,13.03
2022-08-28T03:53:51.845Z,11.47
2022-08-28T03:55:55.757Z,11.80
2022-08-28T03:57:59.303Z,11.90
2022-08-28T04:00:03.946Z,11.03
2022-08-28T04:02:07.161Z,11.10
2022-08-28T04:04:10.361Z,10.60
2022-08-28T04:06:15.995Z,13.00
2022-08-28T04:08:21.208Z,11.97
2022-08-28T04:10:26.086Z,11.63
2022-08-28T04:12:29.528Z,11.90
2022-08-28T04:14:38.498Z,11.10
2022-08-28T04:16:42.095Z,11.70
2022-08-28T04:18:46.200Z,12.00
2022-08-28T04:20:59.517Z,14.53
2022-08-28T04:23:03.864Z,13.60
2022-08-28T04:25:08.987Z,17.40
2022-08-28T04:27:14.776Z,17.77
2022-08-28T04:29:18.577Z,18.40
2022-08-28T04:31:31.760Z,19.43
2022-08-28T04:33:37.388Z,19.03
2022-08-28T04:35:42.954Z,19.90
2022-08-28T04:37:46.529Z,18.13
2022-08-28T04:39:49.813Z,18.97
2022-08-28T04:41:55.831Z,18.43
2022-08-28T04:44:00.623Z,17.57
2022-08-28T04:46:06.113Z,16.33
2022-08-28T04:48:13.633Z,17.40
2022-08-28T04:50:17.411Z,17.40
2022-08-28T04:52:21.105Z,17.00
2022-08-28T04:54:24.473Z,15.77
2022-08-28T04:56:28.330Z,16.93
2022-08-28T04:58:33.595Z,17.37
2022-08-28T05:00:38.785Z,16.03
2022-08-28T05:02:42.375Z,15.90
2022-08-28T05:04:45.632Z,16.50
2022-08-28T05:06:49.071Z,17.10
2022-08-28T05:08:52.307Z,17.97
2022-08-28T05:10:56.186Z,17.13
2022-08-28T05:12:59.376Z,17.90
2022-08-28T05:15:02.955Z,15.53
2022-08-28T05:17:09.418Z,15.60
2022-08-28T05:19:12.865Z,17.70
2022-08-28T05:21:21.301Z,17.17
2022-08-28T05:23:25.580Z,15.50
2022-08-28T05:25:29.002Z,16.03
2022-08-28T05:27:32.244Z,16.00
2022-08-28T05:29:35.740Z,15.90
2022-08-28T05:31:40.360Z,16.13
2022-08-28T05:33:45.232Z,15.93
2022-08-28T05:35:49.414Z,15.30
2022-08-28T05:37:53.638Z,14.40
2022-08-28T05:39:57.096Z,14.33
2022-08-28T05:42:00.369Z,13.60
2022-08-28T05:44:07.211Z,13.90
2022-08-28T05:46:12.095Z,11.93
2022-08-28T05:48:16.249Z,12.90
2022-08-28T05:50:21.500Z,12.60
2022-08-28T05:52:24.703Z,11.53
2022-08-28T05:54:29.193Z,11.53
2022-08-28T05:56:35.855Z,11.80
2022-08-28T05:58:40.481Z,12.00
2022-08-28T06:00:43.872Z,10.60
2022-08-28T06:02:47.228Z,10.90
2022-08-28T06:04:51.446Z,10.13
2022-08-28T06:06:57.023Z,10.60
2022-08-28T06:09:01.640Z,10.70
2022-08-28T06:11:05.754Z,12.20
2022-08-28T06:13:10.868Z,11.47
2022-08-28T06:15:15.382Z,11.23
2022-08-28T06:17:23.506Z,11.03
2022-08-28T06:19:28.206Z,10.60
2022-08-28T06:21:31.485Z,10.23
2022-08-28T06:23:37.160Z,10.63
2022-08-28T06:25:41.006Z,10.20
2022-08-28T06:27:47.054Z,10.63
2022-08-28T06:29:50.452Z,11.00
2022-08-28T06:31:56.406Z,10.67
2022-08-28T06:34:00.391Z,9.47
2022-08-28T06:36:05.993Z,9.43
2022-08-28T06:38:09.525Z,10.47
2022-08-28T06:40:14.415Z,9.10
2022-08-28T06:42:17.954Z,10.00
2022-08-28T06:44:23.082Z,10.53
2022-08-28T06:46:27.057Z,9.40
2022-08-28T06:48:30.548Z,9.87
2022-08-28T06:50:33.923Z,9.30
2022-08-28T06:52:37.970Z,9.27
2022-08-28T06:54:45.613Z,9.97
2022-08-28T06:57:00.451Z,10.20
2022-08-28T06:59:04.178Z,10.10
2022-08-28T07:01:10.621Z,10.27
2022-08-28T07:03:19.412Z,11.33
2022-08-28T07:05:23.661Z,9.20
2022-08-28T07:07:32.722Z,10.33
2022-08-28T07:09:36.338Z,9.90
2022-08-28T07:11:40.959Z,10.73
2022-08-28T07:13:46.497Z,10.13
2022-08-28T07:15:50.241Z,11.43
2022-08-28T07:17:54.220Z,10.23
2022-08-28T07:20:05.381Z,9.53
2022-08-28T07:22:08.655Z,9.80
2022-08-28T07:24:13.376Z,8.63
2022-08-28T07:26:21.974Z,9.80
2022-08-28T07:28:29.766Z,9.03
2022-08-28T07:30:34.893Z,10.23
2022-08-28T07:32:38.779Z,10.23
2022-08-28T07:34:42.809Z,10.50
2022-08-28T07:36:47.001Z,11.20
2022-08-28T07:38:50.666Z,10.90
2022-08-28T07:40:55.240Z,9.90
2022-08-28T07:43:16.286Z,8.77
2022-08-28T07:45:19.925Z,9.90
2022-08-28T07:47:26.216Z,9.30
2022-08-28T07:49:29.695Z,9.10
2022-08-28T07:51:33.657Z,9.17
2022-08-28T07:53:37.670Z,8.10
2022-08-28T07:55:42.270Z,8.60
2022-08-28T07:57:46.178Z,7.80
2022-08-28T07:59:50.210Z,8.67
2022-08-28T08:01:54.453Z,7.53
2022-08-28T08:04:04.195Z,8.50
2022-08-28T08:06:10.477Z,9.07
2022-08-28T08:08:17.698Z,8.30
2022-08-28T08:10:20.984Z,8.17
2022-08-28T08:12:24.241Z,8.07
2022-08-28T08:14:31.386Z,7.47
2022-08-28T08:16:38.924Z,8.97
2022-08-28T08:18:43.835Z,7.53
2022-08-28T08:20:48.650Z,7.23
2022-08-28T08:22:52.265Z,8.20
2022-08-28T08:24:55.641Z,7.73
2022-08-28T08:27:03.219Z,7.40
2022-08-28T08:29:06.641Z,7.37
2022-08-28T08:31:12.026Z,7.67
2022-08-28T08:33:15.209Z,6.70
2022-08-28T08:35:19.783Z,7.90
2022-08-28T08:37:24.800Z,7.63
2022-08-28T08:39:28.299Z,6.97
2022-08-28T08:41:43.626Z,6.60
2022-08-28T08:43:54.926Z,7.63
2022-08-28T08:45:58.720Z,6.57
2022-08-28T08:48:02.963Z,8.50
2022-08-28T08:50:11.556Z,6.30
2022-08-28T08:52:37.546Z,6.20
2022-08-28T08:54:42.733Z,6.53
2022-08-28T08:56:47.531Z,8.00
2022-08-28T08:58:54.461Z,6.93
2022-08-28T09:01:03.070Z,6.73
2022-08-28T09:03:08.912Z,6.80
2022-08-28T09:05:14.697Z,5.80
2022-08-28T09:07:21.789Z,6.80
2022-08-28T09:09:30.952Z,6.53
2022-08-28T09:11:38.899Z,6.60
2022-08-28T09:13:50.669Z,7.17
2022-08-28T09:15:53.963Z,7.00
2022-08-28T09:18:04.775Z,6.33
2022-08-28T09:20:10.678Z,6.30
2022-08-28T09:22:14.657Z,6.03
2022-08-28T09:24:21.729Z,6.00
2022-08-28T09:26:26.792Z,5.73
2022-08-28T09:28:31.091Z,6.07
2022-08-28T09:30:35.081Z,4.63
2022-08-28T09:32:41.555Z,5.57
2022-08-28T09:35:00.297Z,5.03
2022-08-28T09:37:04.522Z,5.10
2022-08-28T09:39:10.133Z,4.10
2022-08-28T09:41:30.784Z,2.90
2022-08-28T09:43:37.856Z,2.93
2022-08-28T09:45:41.406Z,2.63
2022-08-28T09:47:49.167Z,2.53
2022-08-28T09:49:53.055Z,2.30
2022-08-28T09:51:59.496Z,2.40
2022-08-28T09:54:09.104Z,4.50
2022-08-28T09:56:19.256Z,4.33
2022-08-28T09:58:23.478Z,4.33
2022-08-28T10:00:30.466Z,4.10
2022-08-28T10:02:44.176Z,4.23
2022-08-28T10:05:02.277Z,3.40
2022-08-28T10:07:09.391Z,4.00
2022-08-28T10:09:23.075Z,4.57
2022-08-28T10:11:33.613Z,4.40
2022-08-28T10:13:48.356Z,4.50
2022-08-28T10:16:14.892Z,4.87
2022-08-28T10:18:35.483Z,4.67
2022-08-28T10:20:50.618Z,4.10
2022-08-28T10:23:03.282Z,4.10
2022-08-28T10:25:22.459Z,4.13
2022-08-28T10:27:45.704Z,4.50
2022-08-28T10:30:05.946Z,3.60
2022-08-28T10:32:23.097Z,4.50
2022-08-28T10:34:40.504Z,5.60
2022-08-28T10:36:52.376Z,5.00
2022-08-28T10:39:02.547Z,4.27
2022-08-28T10:41:10.164Z,4.60
2022-08-28T10:43:15.597Z,4.13
2022-08-28T10:45:23.705Z,4.10
2022-08-28T10:47:30.330Z,4.10
2022-08-28T10:49:38.093Z,4.37
2022-08-28T10:51:45.778Z,4.77
2022-08-28T10:53:56.048Z,4.33
2022-08-28T10:56:02.794Z,3.40
2022-08-28T10:58:23.888Z,4.10
2022-08-28T11:00:29.824Z,4.40
2022-08-28T11:02:35.092Z,3.13
2022-08-28T11:04:38.679Z,3.53
2022-08-28T11:06:45.348Z,4.03
2022-08-28T11:08:54.262Z,3.80
2022-08-28T11:10:58.684Z,3.63
2022-08-28T11:13:04.461Z,3.53
2022-08-28T11:15:26.352Z,3.43
2022-08-28T11:17:42.281Z,3.37
2022-08-28T11:20:04.546Z,3.07
2022-08-28T11:22:12.666Z,2.90
2022-08-28T11:24:30.188Z,3.10
2022-08-28T11:26:42.367Z,3.17
2022-08-28T11:28:47.810Z,3.10
2022-08-28T11:31:19.283Z,3.27
2022-08-28T11:33:39.176Z,3.80
2022-08-28T11:35:50.865Z,3.70
2022-08-28T11:37:56.431Z,3.87
2022-08-28T11:40:17.746Z,3.30
2022-08-28T11:42:38.654Z,3.83
2022-08-28T11:44:43.989Z,3.90
2022-08-28T11:46:48.747Z,3.70
2022-08-28T11:48:55.109Z,4.40
2022-08-28T11:51:02.369Z,3.10
2022-08-28T11:53:43.938Z,3.87
2022-08-28T11:56:30.492Z,4.00
2022-08-28T11:58:42.868Z,4.27
2022-08-28T12:00:53.611Z,4.40
2022-08-28T12:03:11.272Z,4.07
2022-08-28T12:05:37.931Z,4.60
2022-08-28T12:07:44.010Z,5.20
2022-08-28T12:09:50.092Z,4.30
2022-08-28T12:12:05.673Z,4.70
2022-08-28T12:14:09.817Z,4.90
2022-08-28T12:16:13.399Z,4.83
2022-08-28T12:19:03.861Z,5.40
2022-08-28T12:21:13.813Z,4.40
2022-08-28T12:23:32.572Z,4.30
2022-08-28T12:25:39.541Z,5.50
2022-08-28T12:27:43.425Z,4.03
2022-08-28T12:29:49.395Z,4.00
2022-08-28T12:32:16.571Z,3.93
2022-08-28T12:34:24.464Z,4.43
2022-08-28T12:36:29.494Z,4.70
2022-08-28T12:38:34.553Z,3.87
2022-08-28T12:40:50.496Z,4.23
2022-08-28T12:42:55.967Z,4.30
2022-08-28T12:45:01.749Z,4.00
2022-08-28T12:47:06.642Z,4.87
2022-08-28T12:49:30.238Z,4.70
2022-08-28T12:51:36.715Z,5.50
2022-08-28T12:53:41.667Z,4.97
2022-08-28T12:55:46.599Z,4.80
2022-08-28T12:57:50.648Z,4.53
2022-08-28T13:00:07.791Z,4.87
2022-08-28T13:02:12.940Z,5.33
2022-08-28T13:04:27.304Z,5.00
2022-08-28T13:06:33.746Z,5.23
2022-08-28T13:08:39.334Z,4.40
2022-08-28T13:10:49.630Z,5.80
2022-08-28T13:12:59.723Z,5.43
2022-08-28T13:15:06.916Z,5.30
2022-08-28T13:17:11.101Z,4.80
2022-08-28T13:19:27.269Z,5.53
2022-08-28T13:21:36.160Z,4.70
2022-08-28T13:23:44.977Z,5.00
2022-08-28T13:25:48.590Z,5.67
2022-08-28T13:28:00.236Z,4.10
2022-08-28T13:30:27.841Z,3.60
2022-08-28T13:32:33.277Z,3.20
2022-08-28T13:34:38.455Z,3.60
2022-08-28T13:36:50.040Z,3.60
2022-08-28T13:38:54.681Z,3.50
2022-08-28T13:41:00.131Z,4.20
2022-08-28T13:43:07.485Z,4.10
2022-08-28T13:45:15.001Z,4.80
2022-08-28T13:47:18.913Z,5.20
2022-08-28T13:49:22.760Z,4.37
2022-08-28T13:51:27.846Z,4.57
2022-08-28T13:53:31.284Z,5.37
2022-08-28T13:55:37.077Z,5.20
2022-08-28T13:57:41.226Z,5.37
2022-08-28T13:59:44.922Z,4.43
2022-08-28T14:02:06.456Z,4.60
2022-08-28T14:04:09.939Z,4.40
2022-08-28T14:06:16.368Z,3.83
2022-08-28T14:08:20.068Z,4.47
2022-08-28T14:10:23.587Z,4.03
2022-08-28T14:12:33.299Z,3.60
2022-08-28T14:14:38.222Z,3.83
2022-08-28T14:16:42.337Z,4.33
2022-08-28T14:18:45.823Z,4.07
2022-08-28T14:20:49.627Z,3.80
2022-08-28T14:22:53.205Z,3.73
2022-08-28T14:24:56.459Z,4.23
2022-08-28T14:27:01.247Z,4.90
2022-08-28T14:29:08.413Z,3.40
2022-08-28T14:31:14.619Z,3.90
2022-08-28T14:33:20.518Z,4.43
2022-08-28T14:35:24.273Z,3.83
2022-08-28T14:37:27.494Z,4.27
2022-08-28T14:39:31.489Z,3.87
2022-08-28T14:41:36.159Z,3.93
2022-08-28T14:43:39.870Z,3.97
2022-08-28T14:45:45.924Z,4.27
2022-08-28T14:47:49.606Z,4.20
2022-08-28T14:49:53.188Z,4.40
2022-08-28T14:51:57.610Z,4.93
2022-08-28T14:54:02.050Z,4.17
2022-08-28T14:56:08.761Z,3.87
2022-08-28T14:58:12.575Z,4.07
2022-08-28T15:00:17.250Z,4.00
2022-08-28T15:02:21.915Z,4.50
2022-08-28T15:04:27.075Z,3.80
2022-08-28T15:06:31.464Z,4.77
2022-08-28T15:08:35.707Z,4.40
2022-08-28T15:10:39.510Z,4.50
2022-08-28T15:12:43.049Z,4.20
2022-08-28T15:14:51.919Z,5.23
2022-08-28T15:17:00.552Z,4.33
2022-08-28T15:19:05.689Z,4.87
2022-08-28T15:21:15.103Z,5.40
2022-08-28T15:23:18.675Z,5.53
2022-08-28T15:25:22.295Z,5.67
2022-08-28T15:27:25.672Z,5.80
2022-08-28T15:29:29.965Z,5.20
2022-08-28T15:31:35.318Z,5.30
2022-08-28T15:33:42.186Z,4.50
2022-08-28T15:35:50.727Z,5.20
2022-08-28T15:37:54.324Z,4.80
2022-08-28T15:40:15.450Z,5.53
2022-08-28T15:42:19.027Z,5.30
2022-08-28T15:44:22.311Z,5.50
2022-08-28T15:46:25.706Z,5.77
2022-08-28T15:48:29.422Z,6.07
2022-08-28T15:50:33.119Z,6.07
2022-08-28T15:52:37.828Z,5.27
2022-08-28T15:54:41.529Z,5.60
2022-08-28T15:56:44.921Z,5.57
2022-08-28T15:58:48.841Z,7.17
2022-08-28T16:00:52.581Z,5.73
2022-08-28T16:02:59.929Z,5.77
2022-08-28T16:05:03.133Z,6.73
2022-08-28T16:07:06.433Z,4.87
2022-08-28T16:09:11.939Z,6.00
2022-08-28T16:11:17.289Z,9.37
2022-08-28T16:13:21.993Z,10.23
2022-08-28T16:15:25.701Z,6.43
2022-08-28T16:17:29.088Z,7.40
2022-08-28T16:19:32.800Z,8.40
2022-08-28T16:21:36.232Z,9.10
2022-08-28T16:23:40.510Z,12.87
2022-08-28T16:25:45.241Z,8.10
2022-08-28T16:27:48.826Z,32.23
2022-08-28T16:29:52.958Z,13.20
2022-08-28T16:31:56.725Z,6.70
2022-08-28T16:34:00.457Z,6.13
2022-08-28T16:36:07.749Z,6.33
2022-08-28T16:38:11.481Z,7.67
2022-08-28T16:40:15.287Z,5.67
2022-08-28T16:42:20.378Z,5.50
2022-08-28T16:44:26.710Z,5.83
2022-08-28T16:46:30.953Z,5.77
2022-08-28T16:48:34.150Z,8.40
2022-08-28T16:50:37.697Z,14.67
2022-08-28T16:52:41.431Z,6.73
2022-08-28T16:54:48.677Z,6.20
2022-08-28T16:56:52.512Z,5.07
2022-08-28T16:58:58.093Z,5.77
2022-08-28T17:01:02.215Z,4.93
2022-08-28T17:03:05.528Z,5.37
2022-08-28T17:05:11.829Z,6.23
2022-08-28T17:07:15.033Z,6.23
2022-08-28T17:09:20.971Z,5.10
2022-08-28T17:11:24.723Z,5.83
2022-08-28T17:13:28.040Z,5.97
2022-08-28T17:15:32.651Z,5.50
2022-08-28T17:17:36.376Z,6.40
2022-08-28T17:19:39.634Z,5.53
2022-08-28T17:22:00.669Z,5.80
2022-08-28T17:24:04.253Z,6.67
2022-08-28T17:26:07.934Z,5.47
2022-08-28T17:28:11.618Z,5.33
2022-08-28T17:30:18.273Z,5.27
2022-08-28T17:32:23.337Z,4.63
2022-08-28T17:34:30.066Z,6.33
2022-08-28T17:36:34.346Z,5.30
2022-08-28T17:38:38.354Z,5.03
2022-08-28T17:40:42.028Z,6.87
2022-08-28T17:42:48.272Z,5.77
2022-08-28T17:44:51.674Z,5.67
2022-08-28T17:46:55.011Z,6.00
2022-08-28T17:48:59.905Z,10.40
2022-08-28T17:51:03.190Z,10.47
2022-08-28T17:53:06.484Z,8.00
2022-08-28T17:55:10.586Z,6.07
2022-08-28T17:57:14.994Z,6.47
2022-08-28T17:59:18.809Z,7.40
2022-08-28T18:01:22.865Z,5.80
2022-08-28T18:03:26.166Z,6.23
2022-08-28T18:05:30.821Z,6.50
2022-08-28T18:07:34.534Z,6.30
2022-08-28T18:09:38.011Z,7.50
2022-08-28T18:11:41.916Z,6.80
2022-08-28T18:13:45.417Z,7.10
2022-08-28T18:15:50.922Z,8.80
2022-08-28T18:17:57.975Z,8.73
2022-08-28T18:20:01.238Z,7.00
2022-08-28T18:22:06.266Z,6.40
2022-08-28T18:24:10.279Z,8.00
2022-08-28T18:26:13.969Z,7.30
2022-08-28T18:28:22.330Z,8.20
2022-08-28T18:30:26.353Z,8.07
2022-08-28T18:32:29.700Z,7.10
2022-08-28T18:34:33.401Z,6.10
2022-08-28T18:36:37.289Z,7.43
2022-08-28T18:38:42.823Z,7.70
2022-08-28T18:40:47.560Z,6.43
2022-08-28T18:42:52.155Z,6.80
2022-08-28T18:44:57.004Z,5.80
2022-08-28T18:47:03.053Z,8.17
2022-08-28T18:49:07.060Z,8.23
2022-08-28T18:51:13.203Z,7.50
2022-08-28T18:53:17.553Z,7.87
2022-08-28T18:55:23.566Z,6.77
2022-08-28T18:57:28.023Z,8.70
2022-08-28T18:59:32.706Z,8.40
2022-08-28T19:01:36.578Z,7.20
2022-08-28T19:03:40.212Z,7.67
2022-08-28T19:05:43.529Z,8.30
2022-08-28T19:07:46.796Z,8.37
2022-08-28T19:09:50.599Z,7.10
2022-08-28T19:11:56.054Z,8.00
2022-08-28T19:13:59.709Z,9.00
2022-08-28T19:16:07.995Z,8.50
2022-08-28T19:18:11.526Z,9.07
2022-08-28T19:20:19.855Z,8.37
2022-08-28T19:22:24.374Z,7.90
2022-08-28T19:24:33.815Z,8.70
2022-08-28T19:26:38.637Z,8.87
2022-08-28T19:28:44.799Z,7.93
2022-08-28T19:30:48.621Z,9.07
2022-08-28T19:32:51.875Z,8.33
2022-08-28T19:34:55.196Z,9.10
2022-08-28T19:36:58.968Z,9.33
2022-08-28T19:39:02.380Z,7.50
2022-08-28T19:41:08.123Z,9.13
2022-08-28T19:43:16.544Z,9.60
2022-08-28T19:45:21.762Z,7.83
2022-08-28T19:47:25.449Z,8.20
2022-08-28T19:49:28.855Z,8.07
2022-08-28T19:51:32.056Z,8.60
2022-08-28T19:53:36.433Z,8.27
2022-08-28T19:55:39.750Z,7.73
2022-08-28T19:57:43.178Z,9.27
2022-08-28T19:59:46.640Z,9.53
2022-08-28T20:01:52.057Z,9.40
2022-08-28T20:03:56.703Z,9.53
2022-08-28T20:06:04.039Z,8.90
2022-08-28T20:08:07.778Z,9.33
2022-08-28T20:10:12.398Z,8.53
2022-08-28T20:12:16.106Z,9.50
2022-08-28T20:14:20.577Z,9.37
2022-08-28T20:16:24.231Z,8.50
2022-08-28T20:18:29.343Z,8.57
2022-08-28T20:20:32.630Z,9.90
2022-08-28T20:22:36.032Z,7.63
2022-08-28T20:24:41.709Z,9.57
2022-08-28T20:26:45.777Z,8.40
2022-08-28T20:28:49.395Z,9.10
2022-08-28T20:30:53.137Z,8.83
2022-08-28T20:32:58.273Z,9.30
2022-08-28T20:35:03.536Z,8.87
2022-08-28T20:37:07.031Z,7.90
2022-08-28T20:39:12.594Z,8.87
2022-08-28T20:41:18.423Z,9.60
2022-08-28T20:43:21.938Z,9.80
2022-08-28T20:45:25.617Z,8.80
2022-08-28T20:47:29.334Z,9.60
2022-08-28T20:49:32.914Z,9.53
2022-08-28T20:51:57.573Z,8.90
2022-08-28T20:54:01.300Z,9.40
2022-08-28T20:56:06.979Z,8.90
2022-08-28T20:58:10.989Z,9.23
2022-08-28T21:00:15.315Z,9.60
2022-08-28T21:02:20.910Z,9.90
2022-08-28T21:04:24.549Z,9.67
2022-08-28T21:06:29.890Z,11.10
2022-08-28T21:08:34.922Z,10.43
2022-08-28T21:10:38.312Z,10.03
2022-08-28T21:12:41.670Z,10.37
2022-08-28T21:14:51.395Z,10.63
2022-08-28T21:16:55.202Z,10.80
2022-08-28T21:19:15.250Z,10.13
2022-08-28T21:21:23.156Z,10.10
2022-08-28T21:23:26.752Z,10.03
2022-08-28T21:25:31.457Z,12.03
2022-08-28T21:27:34.921Z,11.10
2022-08-28T21:29:38.453Z,11.73
2022-08-28T21:31:42.610Z,11.87
2022-08-28T21:33:46.007Z,10.63
2022-08-28T21:35:49.398Z,11.60
2022-08-28T21:37:52.685Z,9.50
2022-08-28T21:39:57.250Z,10.40
2022-08-28T21:42:06.335Z,11.57
2022-08-28T21:44:10.301Z,10.53
2022-08-28T21:46:15.526Z,10.40
2022-08-28T21:48:18.983Z,10.47
2022-08-28T21:50:29.224Z,9.20
2022-08-28T21:52:33.424Z,9.37
2022-08-28T21:54:36.924Z,7.97
2022-08-28T21:56:40.398Z,9.13
2022-08-28T21:58:44.962Z,9.90
2022-08-28T22:00:49.428Z,9.33
2022-08-28T22:02:52.868Z,8.60
2022-08-28T22:04:56.924Z,8.67
2022-08-28T22:07:00.555Z,7.80
2022-08-28T22:09:05.589Z,7.90
2022-08-28T22:11:10.151Z,7.77
2022-08-28T22:13:14.791Z,8.40
2022-08-28T22:15:19.761Z,8.10
2022-08-28T22:17:23.375Z,7.77
2022-08-28T22:19:26.666Z,7.40
2022-08-28T22:21:47.123Z,8.80
2022-08-28T22:23:51.248Z,8.03
2022-08-28T22:25:54.767Z,7.90
2022-08-28T22:27:58.109Z,7.67
2022-08-28T22:30:01.760Z,7.77
2022-08-28T22:32:07.152Z,6.63
2022-08-28T22:34:11.837Z,7.63
2022-08-28T22:36:15.317Z,7.90
2022-08-28T22:38:19.220Z,6.33
2022-08-28T22:40:23.260Z,8.70
2022-08-28T22:42:26.446Z,8.00
2022-08-28T22:44:29.983Z,7.83
2022-08-28T22:46:33.458Z,7.53
2022-08-28T22:48:38.309Z,8.17
2022-08-28T22:50:42.264Z,7.10
2022-08-28T22:52:48.222Z,7.90
2022-08-28T22:54:53.197Z,7.73
2022-08-28T22:56:56.522Z,7.13
2022-08-28T22:59:00.225Z,7.57
2022-08-28T23:01:09.281Z,7.93
2022-08-28T23:03:12.955Z,7.93
2022-08-28T23:05:18.134Z,7.30
2022-08-28T23:07:21.612Z,7.40
2022-08-28T23:09:24.779Z,8.40
2022-08-28T23:11:28.222Z,7.63
2022-08-28T23:13:32.830Z,7.27
2022-08-28T23:15:36.297Z,7.20
2022-08-28T23:17:41.138Z,7.17
2022-08-28T23:19:46.320Z,8.80
2022-08-28T23:21:51.244Z,8.80
2022-08-28T23:23:55.091Z,10.20
2022-08-28T23:25:58.321Z,9.43
2022-08-28T23:28:05.919Z,8.83
2022-08-28T23:30:10.588Z,8.60
2022-08-28T23:32:13.814Z,8.10
2022-08-28T23:34:17.441Z,8.00
2022-08-28T23:36:20.735Z,7.70
2022-08-28T23:38:25.301Z,8.43
2022-08-28T23:40:29.879Z,7.70
2022-08-28T23:42:33.159Z,8.60
2022-08-28T23:44:36.581Z,8.30
2022-08-28T23:46:41.068Z,8.53
2022-08-28T23:48:45.901Z,7.07
2022-08-28T23:50:53.820Z,7.87
2022-08-28T23:52:56.986Z,7.77
2022-08-28T23:55:02.343Z,6.63
2022-08-28T23:57:05.842Z,7.17
2022-08-28T23:59:12.227Z,7.60
